Estación Meteorológica Peña el Pijo (Robertgarden) [ 01/30/23 13:38:15 CET ]

Fecha Hora Presion(HPa) Temp (°C) Humedad % Rocio (°C) Viento ( m/s) Direccion Lluvia 1Hora(mm) Lluvia 24H(mm) LLuvia Total(mm)
2012-Dec-14 01:01:11 1006.100 5.2 71 0.4         178.19
2012-Dec-14 02:03:14 1005.800 4.9 73 0.4         178.19
2012-Dec-14 03:01:13 1005.500 5.4 74 1.1         178.19
2012-Dec-14 04:01:14 1005.800 5.6 75 1.5         178.19
2012-Dec-14 05:01:12 1006.300 6.6 74 2.3         178.19
2012-Dec-14 06:01:13 1006.000 6.7 72 2.0         178.19
2012-Dec-14 07:01:13 1005.200 6.2 72 1.5 2.7 SE     178.19
2012-Dec-14 08:01:17 1004.700 6.4 72 1.7         178.19
2012-Dec-14 09:01:17 1005.400 6.9 71 2.0         178.19
2012-Dec-14 10:01:17 1006.300 8.9 68 3.3 1.7 SSE     178.19
2012-Dec-14 11:01:12 1006.500 11.3 61 4.0         178.19
2012-Dec-14 12:01:12 1006.200 11.8 58 3.8         178.19
2012-Dec-14 13:01:12 1005.800 10.9 60 3.4         178.19
2012-Dec-14 14:01:12 1005.600 11.6 58 3.6 2.2 E     178.19
2012-Dec-14 15:01:17 1005.000 12.7 53 3.3 2.3 SSW     178.19
2012-Dec-14 16:01:14 1004.500 11.0 60 3.5 6.0 WSW     178.19
2012-Dec-14 17:01:16 1005.000 10.8 63 4.0         178.19
2012-Dec-14 18:01:14 1005.600 10.2 63 3.4         178.19
2012-Dec-14 19:01:17 1005.600 10.4 66 4.3         178.19
2012-Dec-14 20:01:13 1005.600 10.3 66 4.2 1.1 ESE     178.19
2012-Dec-14 21:01:11 1005.800 10.4 65 4.1 2.1 SSE     178.19
2012-Dec-14 22:01:15 1005.800 10.6 66 4.5 2.4 S     178.19
2012-Dec-14 23:01:14 1005.600 10.9 68 5.2 0.6 ESE     178.19

Temperatura Máxima:12°    Temperatura Mínima:
Presión Máxima:1006.500 Hpa    Presión Mínima:1004.500 Hpa


Volver